This is the latest recevied weather packets stored in our database for station/object KQ4HEI. If no packets are shown the sender has not sent any weather packets the latest 10 day(s).
| Time | Temp. | Humidity | Pressure | Rain* | Wind** | Luminosity | Snow |
|---|---|---|---|---|---|---|---|
| 1777815092 | 19.44° C | 54% | 1018.9 hPa | 0 mm | - | - | - |
| 1777814492 | 18.89° C | 57% | 1019 hPa | 0 mm | - | - | - |
| 1777813891 | 17.22° C | 64% | 1019.1 hPa | 0 mm | - | - | - |
| 1777813293 | 16.11° C | 69% | 1019.1 hPa | 0 mm | - | - | - |
| 1777812691 | 15° C | 72% | 1019.1 hPa | 0 mm | - | - | - |
| 1777812091 | 13.89° C | 78% | 1019.1 hPa | 0 mm | - | - | - |
| 1777811491 | 12.78° C | 81% | 1018.9 hPa | 0 mm | - | - | - |
| 1777810891 | 10.56° C | 88% | 1018.9 hPa | 0 mm | - | - | - |
| 1777810291 | 8.33° C | 98% | 1018.9 hPa | 0 mm | - | - | - |
| 1777809692 | 6.67° C | 99% | 1018.7 hPa | 0 mm | - | - | - |
| 1777809091 | 6.11° C | 99% | 1018.6 hPa | 0 mm | - | - | - |
| 1777808491 | 5.56° C | 99% | 1018.6 hPa | 0 mm | - | - | - |
| 1777807891 | 5.56° C | 99% | 1018.4 hPa | 0 mm | - | - | - |
| 1777807291 | 5.56° C | 99% | 1018.1 hPa | 0 mm | - | - | - |
| 1777806691 | 5° C | 99% | 1017.9 hPa | 0 mm | - | - | - |
| 1777806092 | 5° C | 99% | 1017.9 hPa | 0 mm | - | - | - |
| 1777805491 | 5° C | 99% | 1017.8 hPa | 0 mm | - | - | - |
| 1777804891 | 5° C | 99% | 1017.7 hPa | 0 mm | - | - | - |
| 1777804291 | 5° C | 99% | 1017.6 hPa | 0 mm | - | - | - |
| 1777803692 | 5° C | 99% | 1017.6 hPa | 0 mm | - | - | - |
| 1777803092 | 5° C | 99% | 1017.4 hPa | 0 mm | - | - | - |
| 1777802492 | 5° C | 99% | 1017.3 hPa | 0 mm | - | - | - |
| 1777801892 | 5° C | 99% | 1017.3 hPa | 0 mm | - | - | - |
| 1777801292 | 5° C | 98% | 1017.4 hPa | 0 mm | - | - | - |
| 1777800692 | 5° C | 98% | 1017.4 hPa | 0 mm | - | - | - |
* Rain latest hour (hover to see other rain measurements)
** Current wind speed in m/s (hover to see current wind gust speed)